createdAt,value
2022-07-29T00:01:24.266Z,98266.00
2022-07-29T00:06:27.009Z,98260.00
2022-07-29T00:11:29.789Z,98257.00
2022-07-29T00:16:35.604Z,98246.00
2022-07-29T00:21:38.450Z,98241.00
2022-07-29T00:26:41.244Z,98223.00
2022-07-29T00:31:44.178Z,98212.00
2022-07-29T00:36:47.009Z,98208.00
2022-07-29T00:41:49.868Z,98193.00
2022-07-29T00:46:52.675Z,98195.00
2022-07-29T00:51:55.504Z,98198.00
2022-07-29T00:57:01.752Z,98189.00
2022-07-29T01:02:05.466Z,98192.00
2022-07-29T01:07:08.899Z,98188.00
2022-07-29T01:12:14.240Z,98186.00
2022-07-29T01:17:52.440Z,98179.00
2022-07-29T01:23:05.083Z,98185.00
2022-07-29T01:28:49.583Z,98183.00
2022-07-29T01:34:06.596Z,98182.00
2022-07-29T01:39:21.080Z,98178.00
2022-07-29T01:44:46.981Z,98173.00
2022-07-29T07:48:37.214Z,98154.00
2022-07-29T07:53:58.803Z,98157.00
2022-07-29T08:14:47.784Z,98156.00
2022-07-29T08:20:10.091Z,98159.00
2022-07-29T08:25:12.861Z,98150.00
2022-07-29T08:30:20.055Z,98143.00
2022-07-29T08:35:24.671Z,98137.00
2022-07-29T08:40:30.622Z,98142.00
2022-07-29T08:45:52.195Z,98150.00
2022-07-29T08:50:57.864Z,98143.00
2022-07-29T08:56:01.072Z,98142.00
2022-07-29T09:01:12.366Z,98148.00
2022-07-29T09:06:18.152Z,98141.00
2022-07-29T09:11:21.164Z,98153.00
2022-07-29T09:16:50.801Z,98136.00
2022-07-29T09:22:03.831Z,98141.00
2022-07-29T09:27:24.265Z,98146.00
2022-07-29T09:32:27.732Z,98143.00
2022-07-29T09:37:30.862Z,98145.00
2022-07-29T09:42:34.932Z,98136.00
2022-07-29T09:47:46.752Z,98126.00
2022-07-29T09:52:54.500Z,98119.00
2022-07-29T09:58:20.348Z,98108.00
2022-07-29T10:03:23.274Z,98107.00
2022-07-29T10:08:29.174Z,98106.00
2022-07-29T10:13:31.929Z,98114.00
2022-07-29T10:18:35.294Z,98108.00
2022-07-29T10:23:46.346Z,98115.00
2022-07-29T10:28:49.395Z,98095.00
2022-07-29T10:34:24.272Z,98100.00
2022-07-29T10:39:59.364Z,98094.00
2022-07-29T10:45:06.783Z,98098.00
2022-07-29T10:55:45.739Z,98087.00
2022-07-29T11:00:53.008Z,98092.00
2022-07-29T11:05:59.545Z,98086.00
2022-07-29T11:11:22.295Z,98081.00
2022-07-29T11:16:25.645Z,98079.00
2022-07-29T11:22:00.349Z,98082.00
2022-07-29T11:27:18.199Z,98074.00
2022-07-29T11:32:29.222Z,98076.00
2022-07-29T11:37:32.562Z,98064.00
2022-07-29T11:42:47.016Z,98065.00
2022-07-29T11:47:54.145Z,98061.00
2022-07-29T11:52:57.801Z,98058.00
2022-07-29T11:58:03.546Z,98065.00
2022-07-29T12:03:12.173Z,98067.00
2022-07-29T12:08:20.171Z,98062.00
2022-07-29T12:13:37.739Z,98054.00
2022-07-29T12:18:40.898Z,98047.00
2022-07-29T12:24:00.637Z,98044.00
2022-07-29T12:29:14.069Z,98033.00
2022-07-29T12:34:25.497Z,98036.00
2022-07-29T12:39:29.249Z,98040.00
2022-07-29T12:44:49.288Z,98042.00
2022-07-29T12:50:08.154Z,98031.00
2022-07-29T12:55:11.233Z,98022.00
2022-07-29T13:00:15.942Z,98039.00
2022-07-29T13:05:18.774Z,98035.00
2022-07-29T13:10:24.223Z,98032.00
2022-07-29T13:15:27.518Z,98042.00
2022-07-29T13:20:31.666Z,98038.00
2022-07-29T13:25:35.497Z,98049.00
2022-07-29T13:30:44.260Z,98044.00
2022-07-29T13:35:48.643Z,98041.00
2022-07-29T13:40:51.770Z,98039.00
2022-07-29T13:45:55.015Z,98031.00
2022-07-29T13:50:58.735Z,98035.00
2022-07-29T13:56:01.573Z,98041.00
2022-07-29T14:01:04.491Z,98053.00
2022-07-29T14:06:07.352Z,98045.00
2022-07-29T14:11:10.063Z,98048.00
2022-07-29T14:16:13.016Z,98052.00
2022-07-29T14:21:15.888Z,98051.00
2022-07-29T14:26:24.158Z,98055.00
2022-07-29T14:31:27.253Z,98060.00
2022-07-29T14:36:30.065Z,98065.00
2022-07-29T14:41:32.814Z,98071.00
2022-07-29T14:46:35.759Z,98066.00
2022-07-29T14:51:38.556Z,98065.00
2022-07-29T14:56:46.551Z,98075.00
2022-07-29T15:01:50.915Z,98105.00
2022-07-29T15:06:53.694Z,98122.00
2022-07-29T15:11:56.869Z,98118.00
2022-07-29T15:17:00.044Z,98122.00
2022-07-29T15:22:03.624Z,98107.00
2022-07-29T15:27:06.734Z,98102.00
2022-07-29T15:32:09.974Z,98086.00
2022-07-29T15:37:15.592Z,98081.00
2022-07-29T15:42:18.444Z,98058.00
2022-07-29T15:47:21.172Z,98053.00
2022-07-29T15:52:25.797Z,98048.00
2022-07-29T15:57:29.235Z,98047.00
2022-07-29T16:02:32.030Z,98044.00
2022-07-29T16:07:34.833Z,98026.00
2022-07-29T16:12:37.575Z,98028.00
2022-07-29T16:17:40.365Z,98018.00
2022-07-29T16:22:43.743Z,97997.00
2022-07-29T16:27:46.494Z,97994.00
2022-07-29T16:32:49.303Z,97985.00
2022-07-29T16:37:52.067Z,97990.00
2022-07-29T16:42:54.826Z,98001.00
2022-07-29T16:48:00.956Z,98026.00
2022-07-29T16:53:04.156Z,98030.00
2022-07-29T16:58:07.159Z,98024.00
2022-07-29T17:03:10.217Z,98002.00
2022-07-29T17:08:13.558Z,98006.00
2022-07-29T17:13:17.216Z,98005.00
2022-07-29T17:18:19.906Z,98004.00
2022-07-29T17:23:22.666Z,98003.00
